Time;durP1;ratioP1;P1;durP2;ratioP2;P2;SDS_P1;SDS_P2;PMS_P1;PMS_P2;Temp;Humidity;BMP_temperature;BMP_pressure;BME280_temperature;BME280_humidity;BME280_pressure;Samples;Min_cycle;Max_cycle;Signal;HPM_P1;HPM_P2
2022/09/11 00:00:52;;;;;;;1999.90;999.90;;;;;;;15.39;99.13;99435.13;8086059;29;20059;-77
2022/09/11 00:05:24;;;;;;;1999.90;999.90;;;;;;;15.32;99.13;99439.66;8079720;29;20688;-77
2022/09/11 00:09:35;;;;;;;1999.90;999.90;;;;;;;15.26;99.15;99444.16;8097168;29;20129;-77
2022/09/11 00:13:55;;;;;;;1999.90;999.90;;;;;;;15.20;98.86;99439.94;8088720;29;20099;-76
2022/09/11 00:18:16;;;;;;;1999.90;999.90;;;;;;;15.17;99.12;99453.06;8090424;29;20896;-77
2022/09/11 00:22:40;;;;;;;1999.90;999.90;;;;;;;15.16;99.37;99447.88;8100638;29;20056;-76
2022/09/11 00:26:56;;;;;;;1999.90;999.90;;;;;;;15.18;99.94;99448.72;8085528;29;20055;-77
2022/09/11 00:31:18;;;;;;;1999.90;999.90;;;;;;;15.15;100.00;99451.41;8098479;29;20701;-77
2022/09/11 00:35:32;;;;;;;1999.90;999.90;;;;;;;15.17;100.00;99455.69;8105305;29;20055;-76
2022/09/11 00:39:43;;;;;;;1999.90;999.90;;;;;;;15.21;100.00;99454.72;8097534;29;20135;-76
2022/09/11 00:44:17;;;;;;;1999.90;999.90;;;;;;;15.29;100.00;99457.19;8099922;28;20162;-77
2022/09/11 00:48:38;;;;;;;1999.90;999.90;;;;;;;15.32;100.00;99457.97;8083995;29;20589;-77
2022/09/11 00:52:56;;;;;;;1999.90;999.90;;;;;;;15.34;100.00;99450.09;8094905;29;20504;-77
2022/09/11 00:57:07;;;;;;;1999.90;999.90;;;;;;;15.37;100.00;99453.50;8090340;29;20036;-77
2022/09/11 01:01:18;;;;;;;1999.90;999.90;;;;;;;15.41;100.00;99457.75;8085662;29;20573;-78
2022/09/11 01:05:38;;;;;;;1999.90;999.90;;;;;;;15.45;100.00;99445.47;8108931;29;20452;-77
2022/09/11 01:09:55;;;;;;;1999.90;999.90;;;;;;;15.44;100.00;99451.63;8087851;29;20773;-77
2022/09/11 01:14:55;;;;;;;1999.90;999.90;;;;;;;15.48;100.00;99452.41;8102213;29;20052;-77
2022/09/11 01:19:43;;;;;;;1999.90;999.90;;;;;;;15.47;100.00;99441.06;8096524;29;20091;-77
2022/09/11 01:23:59;;;;;;;1999.90;999.90;;;;;;;15.48;100.00;99453.25;8065068;29;20608;-77
2022/09/11 01:28:34;;;;;;;1999.90;999.90;;;;;;;15.45;100.00;99455.09;8108169;29;20616;-77
2022/09/11 01:33:07;;;;;;;1999.90;999.90;;;;;;;15.41;100.00;99460.38;8088098;29;20060;-77
2022/09/11 01:37:30;;;;;;;1999.90;999.90;;;;;;;15.40;100.00;99448.19;8090011;29;20052;-77
2022/09/11 01:41:52;;;;;;;1999.90;999.90;;;;;;;15.39;100.00;99442.97;8117339;29;20052;-77
2022/09/11 01:46:21;;;;;;;1999.90;999.90;;;;;;;15.36;100.00;99448.28;8066239;28;20557;-77
2022/09/11 01:50:40;;;;;;;1999.90;999.90;;;;;;;15.35;100.00;99442.19;8106911;29;20083;-76
2022/09/11 01:54:54;;;;;;;1999.90;999.90;;;;;;;15.38;100.00;99442.13;8123679;29;20122;-77
2022/09/11 01:59:09;;;;;;;1999.90;999.90;;;;;;;15.34;100.00;99443.09;8099364;29;20104;-77
2022/09/11 02:03:41;;;;;;;1999.90;999.90;;;;;;;15.29;100.00;99439.75;8108575;29;20055;-77
2022/09/11 02:08:19;;;;;;;1999.90;999.90;;;;;;;15.22;100.00;99435.53;8125019;29;20421;-76
2022/09/11 02:12:45;;;;;;;1999.90;999.90;;;;;;;15.14;99.89;99439.22;8098720;29;20317;-77
2022/09/11 02:17:32;;;;;;;1999.90;999.90;;;;;;;15.06;99.62;99434.13;8113573;29;20056;-77
2022/09/11 02:21:44;;;;;;;1999.90;999.90;;;;;;;14.95;99.67;99444.00;8123792;29;20139;-76
2022/09/11 02:25:54;;;;;;;1999.90;999.90;;;;;;;14.91;99.63;99447.56;8117950;29;20056;-77
2022/09/11 02:30:03;;;;;;;1999.90;999.90;;;;;;;14.87;99.90;99438.91;8118834;29;20052;-77
2022/09/11 02:34:27;;;;;;;1999.90;999.90;;;;;;;14.80;99.95;99453.88;8115467;29;20509;-77
2022/09/11 02:38:55;;;;;;;1999.90;999.90;;;;;;;14.75;99.92;99453.09;8104189;29;20049;-76
2022/09/11 02:43:31;;;;;;;1999.90;999.90;;;;;;;14.72;99.64;99461.00;8104906;29;20044;-76
2022/09/11 02:48:10;;;;;;;1999.90;999.90;;;;;;;14.66;99.93;99468.09;8081951;29;20060;-76
2022/09/11 02:52:30;;;;;;;1999.90;999.90;;;;;;;14.57;99.45;99469.16;8078166;29;20076;-77
2022/09/11 02:57:22;;;;;;;1999.90;999.90;;;;;;;14.49;99.63;99476.25;8089062;29;20068;-76
2022/09/11 03:01:57;;;;;;;1999.90;999.90;;;;;;;14.42;99.43;99470.25;8064131;29;20467;-76
2022/09/11 03:06:14;;;;;;;1999.90;999.90;;;;;;;14.44;99.95;99478.09;8074506;29;20056;-76
2022/09/11 03:10:26;;;;;;;1999.90;999.90;;;;;;;14.45;100.00;99483.28;8092682;29;20056;-76
2022/09/11 03:14:33;;;;;;;1999.90;999.90;;;;;;;14.46;100.00;99484.16;8061976;29;20486;-76
2022/09/11 03:18:54;;;;;;;1999.90;999.90;;;;;;;14.48;100.00;99479.75;8064066;29;21073;-76
2022/09/11 03:23:08;;;;;;;1999.90;999.90;;;;;;;14.45;100.00;99477.22;8073646;29;20052;-76
2022/09/11 03:27:30;;;;;;;1999.90;999.90;;;;;;;14.41;100.00;99485.97;8069761;29;20084;-76
2022/09/11 03:32:00;;;;;;;1999.90;999.90;;;;;;;14.38;100.00;99491.25;8071196;29;20160;-76
2022/09/11 03:36:13;;;;;;;1999.90;999.90;;;;;;;14.41;100.00;99499.03;8066355;29;20760;-76
2022/09/11 03:40:19;;;;;;;1999.90;999.90;;;;;;;14.38;100.00;99489.50;8071858;29;20048;-77
2022/09/11 03:44:49;;;;;;;1999.90;999.90;;;;;;;14.41;100.00;99494.66;8075097;28;20053;-76
2022/09/11 03:49:03;;;;;;;1999.90;999.90;;;;;;;14.40;100.00;99490.34;8080156;29;20116;-77
2022/09/11 03:53:28;;;;;;;1999.90;999.90;;;;;;;14.37;100.00;99502.59;8089828;29;20123;-77
2022/09/11 03:57:32;;;;;;;1999.90;999.90;;;;;;;14.37;100.00;99503.47;8082773;29;20570;-77
2022/09/11 04:12:54;;;;;;;1999.90;999.90;;;;;;;14.41;100.00;99518.19;10502493;22;20716;-76
2022/09/11 04:17:17;;;;;;;1999.90;999.90;;;;;;;14.46;100.00;99521.59;10254991;23;20028;-76
2022/09/11 04:21:45;;;;;;;1999.90;999.90;;;;;;;14.51;100.00;99514.53;10208152;23;20013;-78
2022/09/11 04:26:14;;;;;;;1999.90;999.90;;;;;;;14.58;100.00;99512.69;10234312;23;20040;-77
2022/09/11 04:30:28;;;;;;;1999.90;999.90;;;;;;;14.61;100.00;99516.97;10207953;23;20017;-78
2022/09/11 04:34:54;;;;;;;1999.90;999.90;;;;;;;14.65;100.00;99516.03;10189029;23;20056;-78
2022/09/11 04:39:18;;;;;;;1999.90;999.90;;;;;;;14.70;100.00;99512.44;10209299;23;20028;-78
2022/09/11 04:43:32;;;;;;;1999.90;999.90;;;;;;;14.74;100.00;99516.72;10185257;23;20032;-78
2022/09/11 04:47:59;;;;;;;1999.90;999.90;;;;;;;14.76;100.00;99519.31;10219341;23;20029;-77
2022/09/11 04:52:35;;;;;;;1999.90;999.90;;;;;;;14.78;100.00;99517.53;10207758;23;20105;-78
2022/09/11 04:56:41;;;;;;;1999.90;999.90;;;;;;;14.77;100.00;99526.25;10208096;23;20428;-78
2022/09/11 05:00:56;;;;;;;1999.90;999.90;;;;;;;14.78;100.00;99528.84;10174673;23;20040;-78
2022/09/11 05:05:01;;;;;;;1999.90;999.90;;;;;;;14.78;100.00;99531.47;10208747;23;20024;-78
2022/09/11 05:09:15;;;;;;;;;;;;;;;14.81;100.00;99535.75;10211399;23;20024;-77
2022/09/11 05:13:30;;;;;;;1999.90;999.90;;;;;;;14.78;100.00;99527.97;10176028;22;20047;-77
2022/09/11 05:17:47;;;;;;;1999.90;999.90;;;;;;;14.72;100.00;99538.53;10187468;23;20363;-78
2022/09/11 05:21:52;;;;;;;1999.90;999.90;;;;;;;14.69;100.00;99546.44;10236236;23;20028;-78
2022/09/11 05:26:21;;;;;;;1999.90;999.90;;;;;;;14.67;100.00;99558.69;10220227;23;20025;-78
2022/09/11 05:31:15;;;;;;;1999.90;999.90;;;;;;;14.65;100.00;99568.31;10206515;23;20040;-78
2022/09/11 05:35:38;;;;;;;1999.90;999.90;;;;;;;14.63;100.00;99564.84;10192794;23;20052;-78
2022/09/11 05:40:27;;;;;;;1999.90;999.90;;;;;;;14.61;100.00;99571.88;10219158;23;20056;-78
2022/09/11 05:44:52;;;;;;;1999.90;999.90;;;;;;;14.62;100.00;99577.06;10219308;23;20029;-78
2022/09/11 05:49:09;;;;;;;1999.90;999.90;;;;;;;14.67;100.00;99584.81;10218556;23;20025;-78
2022/09/11 05:53:36;;;;;;;1999.90;999.90;;;;;;;14.71;100.00;99582.09;10219797;23;20021;-78
2022/09/11 06:08:46;;;;;;;1999.90;999.90;;;;;;;14.76;100.00;99600.34;8362041;27;20459;-77
2022/09/11 06:12:54;;;;;;;1999.90;999.90;;;;;;;14.82;100.00;99603.69;8317263;28;20041;-77
2022/09/11 06:17:05;;;;;;;1999.90;999.90;;;;;;;14.88;100.00;99602.72;8284515;28;20206;-76
2022/09/11 06:21:10;;;;;;;1999.90;999.90;;;;;;;14.95;100.00;99604.34;8275655;28;20050;-77
2022/09/11 06:25:18;;;;;;;1999.90;999.90;;;;;;;15.03;100.00;99612.03;8272559;28;20046;-77
2022/09/11 06:29:25;;;;;;;1999.90;999.90;;;;;;;14.93;100.00;99621.81;8240572;28;20046;-77
2022/09/11 06:33:35;;;;;;;1999.90;999.90;;;;;;;15.00;100.00;99617.31;8246163;28;20213;-76
2022/09/11 06:37:44;;;;;;;1999.90;999.90;;;;;;;15.10;100.00;99622.38;8304568;28;20049;-77
2022/09/11 06:41:52;;;;;;;1999.90;999.90;;;;;;;15.20;100.00;99619.56;8304405;28;20050;-77
2022/09/11 06:46:23;;;;;;;1999.90;999.90;;;;;;;15.44;99.74;99616.47;8281509;28;20108;-76
2022/09/11 06:50:39;;;;;;;1999.90;999.90;;;;;;;15.75;99.30;99631.53;8317630;28;20059;-76
2022/09/11 06:54:48;;;;;;;1999.90;999.90;;;;;;;15.91;97.51;99631.19;8292070;28;20037;-77
2022/09/11 06:58:57;;;;;;;1999.90;999.90;;;;;;;16.19;96.40;99630.56;8294907;28;20234;-77
2022/09/11 07:03:06;;;;;;;1999.90;999.90;;;;;;;16.52;94.80;99634.13;8310936;28;20045;-77
2022/09/11 07:07:07;;;;;;;1999.90;999.90;;;;;;;16.88;92.90;99645.50;8292591;28;20054;-77
2022/09/11 07:11:16;;;;;;;1999.90;999.90;;;;;;;17.00;92.06;99647.78;8283240;28;20053;-77
2022/09/11 07:15:17;;;;;;;1999.90;999.90;;;;;;;17.19;92.34;99641.13;8291478;28;20042;-77
2022/09/11 07:19:26;;;;;;;1999.90;999.90;;;;;;;17.24;91.77;99638.41;8288231;28;20059;-77
2022/09/11 07:23:27;;;;;;;1999.90;999.90;;;;;;;17.20;90.48;99642.00;8278734;28;20045;-77
2022/09/11 07:27:35;;;;;;;1999.90;999.90;;;;;;;17.05;90.11;99642.41;8303073;28;20046;-76
2022/09/11 07:31:45;;;;;;;1999.90;999.90;;;;;;;16.97;90.52;99642.63;8273807;28;20046;-77
2022/09/11 07:35:54;;;;;;;1999.90;999.90;;;;;;;16.92;90.92;99637.50;8277382;28;20737;-76
2022/09/11 07:39:55;;;;;;;1999.90;999.90;;;;;;;16.98;91.26;99643.47;8291085;28;20535;-77
2022/09/11 07:44:05;;;;;;;1999.90;999.90;;;;;;;17.05;91.21;99645.03;8275192;28;20089;-77
2022/09/11 07:48:13;;;;;;;1999.90;999.90;;;;;;;17.03;91.23;99652.06;8287121;28;20053;-77
2022/09/11 07:52:21;;;;;;;1999.90;999.90;;;;;;;16.92;90.36;99653.22;8293624;28;20144;-77
2022/09/11 07:56:24;;;;;;;1999.90;999.90;;;;;;;16.88;90.99;99656.00;8295685;28;20555;-77
2022/09/11 08:00:32;;;;;;;1999.90;999.90;;;;;;;16.88;91.57;99663.84;8283539;28;20050;-77
2022/09/11 08:04:41;;;;;;;1999.90;999.90;;;;;;;16.86;91.27;99661.25;8292522;28;20049;-77
2022/09/11 08:08:59;;;;;;;1999.90;999.90;;;;;;;16.79;91.57;99659.69;8292808;28;20373;-76
2022/09/11 08:13:07;;;;;;;1999.90;999.90;;;;;;;16.75;91.53;99659.81;8284661;28;20042;-76
2022/09/11 08:17:10;;;;;;;1999.90;999.90;;;;;;;16.78;91.88;99668.47;8288336;28;20124;-76
2022/09/11 08:21:18;;;;;;;1999.90;999.90;;;;;;;16.79;92.51;99671.94;8273493;28;20052;-77
2022/09/11 08:25:20;;;;;;;1999.90;999.90;;;;;;;16.84;92.75;99665.66;8308397;28;20049;-77
2022/09/11 08:29:28;;;;;;;1999.90;999.90;;;;;;;16.92;92.58;99670.75;8274506;28;20129;-77
2022/09/11 08:33:37;;;;;;;1999.90;999.90;;;;;;;16.99;92.51;99669.66;8266558;28;20057;-77
2022/09/11 08:37:46;;;;;;;1999.90;999.90;;;;;;;17.03;90.89;99667.81;8257803;28;20056;-77
2022/09/11 08:42:04;;;;;;;1999.90;999.90;;;;;;;17.18;90.53;99664.78;8268973;28;20045;-77
2022/09/11 08:46:13;;;;;;;1999.90;999.90;;;;;;;17.38;91.11;99670.34;8262406;28;20139;-77
2022/09/11 08:50:25;;;;;;;1999.90;999.90;;;;;;;17.50;90.41;99677.03;8295002;28;20496;-77
2022/09/11 08:54:36;;;;;;;1999.90;999.90;;;;;;;17.58;89.46;99682.91;8282370;28;20387;-77
2022/09/11 08:59:03;;;;;;;1999.90;999.90;;;;;;;17.53;87.31;99682.19;8302437;28;20710;-77
2022/09/11 09:03:13;;;;;;;1999.90;999.90;;;;;;;17.56;86.52;99682.09;8290477;28;20119;-76
2022/09/11 09:07:56;;;;;;;1999.90;999.90;;;;;;;17.63;86.19;99674.94;8288644;28;20076;-77
2022/09/11 09:12:16;;;;;;;1999.90;999.90;;;;;;;17.76;86.92;99684.19;8274340;28;20104;-77
2022/09/11 09:16:33;;;;;;;1999.90;999.90;;;;;;;17.76;85.65;99682.44;8289019;28;20060;-76
2022/09/11 09:20:42;;;;;;;1999.90;999.90;;;;;;;17.80;85.48;99699.00;8272554;28;20053;-76
2022/09/11 09:24:59;;;;;;;1999.90;999.90;;;;;;;17.72;84.53;99691.31;8274556;28;20053;-76
2022/09/11 09:29:04;;;;;;;1999.90;999.90;;;;;;;17.78;85.14;99685.03;8287783;28;20503;-77
2022/09/11 09:33:14;;;;;;;1999.90;999.90;;;;;;;17.75;84.35;99693.84;8284259;28;20057;-78
2022/09/11 09:37:26;;;;;;;1999.90;999.90;;;;;;;17.72;83.52;99686.06;8264829;28;20140;-79
2022/09/11 09:42:18;;;;;;;1999.90;999.90;;;;;;;17.71;82.99;99686.09;8283087;28;20049;-78
2022/09/11 09:46:30;;;;;;;1999.90;999.90;;;;;;;17.79;83.17;99684.13;8276136;28;20161;-77
2022/09/11 09:50:42;;;;;;;;;;;;;;;17.97;84.32;99685.34;8267663;28;20081;-78
2022/09/11 09:55:00;;;;;;;1999.90;999.90;;;;;;;18.13;83.28;99686.59;8290035;28;19929;-77
2022/09/11 09:59:27;;;;;;;1999.90;999.90;;;;;;;18.27;83.09;99681.78;8294248;28;20042;-78
2022/09/11 10:03:56;;;;;;;1999.90;999.90;;;;;;;18.45;82.89;99687.38;8273449;28;20046;-78
2022/09/11 10:08:04;;;;;;;1999.90;999.90;;;;;;;18.47;81.09;99688.19;8309719;28;20050;-78
2022/09/11 10:12:23;;;;;;;1999.90;999.90;;;;;;;18.56;80.80;99686.13;8274322;28;20038;-78
2022/09/11 10:16:48;;;;;;;1999.90;999.90;;;;;;;18.73;80.13;99679.50;8287694;28;20137;-79
2022/09/11 10:21:23;;;;;;;1999.90;999.90;;;;;;;18.89;78.95;99665.78;8298379;28;20053;-77
2022/09/11 10:25:28;;;;;;;1999.90;999.90;;;;;;;19.14;78.23;99665.78;8286737;28;20062;-78
2022/09/11 10:29:30;;;;;;;1999.90;999.90;;;;;;;19.42;78.32;99660.41;8293567;28;20783;-77
2022/09/11 10:33:40;;;;;;;1999.90;999.90;;;;;;;19.67;77.24;99665.66;8256173;28;20050;-77
2022/09/11 10:37:45;;;;;;;1999.90;999.90;;;;;;;19.71;74.14;99663.75;8276573;28;20038;-77
2022/09/11 10:42:11;;;;;;;1999.90;999.90;;;;;;;19.61;71.98;99663.25;8294455;28;20045;-78
2022/09/11 10:46:30;;;;;;;1999.90;999.90;;;;;;;19.65;74.13;99664.00;8281443;28;20057;-78
2022/09/11 10:50:40;;;;;;;1999.90;999.90;;;;;;;19.71;75.00;99669.88;8303628;28;20732;-78
2022/09/11 10:54:48;;;;;;;1999.90;999.90;;;;;;;19.73;74.18;99669.84;8286961;28;20096;-78
2022/09/11 10:59:04;;;;;;;1999.90;999.90;;;;;;;19.71;72.03;99667.25;8287655;28;20037;-78
2022/09/11 11:03:15;;;;;;;1999.90;999.90;;;;;;;19.84;72.21;99668.53;8285897;28;20361;-78
2022/09/11 11:07:29;;;;;;;1999.90;999.90;;;;;;;19.97;71.02;99671.56;8277926;28;20054;-78
2022/09/11 11:12:02;;;;;;;1999.90;999.90;;;;;;;19.96;70.71;99675.13;8285317;28;20112;-78
2022/09/11 11:16:38;;;;;;;1999.90;999.90;;;;;;;19.99;71.41;99671.50;8312472;28;20119;-79
2022/09/11 11:21:06;;;;;;;1999.90;999.90;;;;;;;19.98;71.30;99669.78;8285048;28;20087;-77
2022/09/11 11:25:26;;;;;;;1999.90;999.90;;;;;;;19.95;71.74;99681.31;8296645;28;20116;-78
2022/09/11 11:29:49;;;;;;;1999.90;999.90;;;;;;;20.00;72.63;99675.84;8281209;28;20046;-78
2022/09/11 11:34:17;;;;;;;1999.90;999.90;;;;;;;20.01;70.83;99674.94;8297424;28;20079;-77
2022/09/11 11:38:33;;;;;;;1999.90;999.90;;;;;;;20.01;69.71;99674.94;8283506;28;20862;-76
2022/09/11 11:42:42;;;;;;;1999.90;999.90;;;;;;;20.00;69.50;99666.16;8279300;28;20042;-77
2022/09/11 11:46:51;;;;;;;1999.90;999.90;;;;;;;20.02;69.50;99668.75;8270175;28;20135;-76
2022/09/11 11:51:06;;;;;;;1999.90;999.90;;;;;;;20.03;68.16;99668.69;8276373;28;20965;-77
2022/09/11 11:55:21;;;;;;;1999.90;999.90;;;;;;;20.03;69.65;99673.09;8271512;28;20065;-77
2022/09/11 12:00:08;;;;;;;1999.90;999.90;;;;;;;20.12;70.38;99667.47;8276282;28;20160;-78
2022/09/11 12:06:11;;;;;;;1999.90;999.90;;;;;;;20.22;69.89;99669.69;8430896;27;480002;-78
2022/09/11 12:10:27;;;;;;;1999.90;999.90;;;;;;;20.24;68.43;99672.25;8464932;27;20053;-78
2022/09/11 12:14:36;;;;;;;;;;;;;;;20.27;67.99;99671.25;8504613;27;20042;-78
2022/09/11 12:18:41;;;;;;;1999.90;999.90;;;;;;;20.37;68.29;99662.09;8483217;27;19929;-78
2022/09/11 12:22:49;;;;;;;1999.90;999.90;;;;;;;20.46;66.82;99664.38;8498680;27;20518;-77
2022/09/11 12:27:36;;;;;;;1999.90;999.90;;;;;;;20.65;67.17;99668.00;8489611;27;20121;-78
2022/09/11 12:31:58;;;;;;;1999.90;999.90;;;;;;;20.74;64.95;99675.53;8463377;27;20071;-77
2022/09/11 12:36:32;;;;;;;1999.90;999.90;;;;;;;20.86;64.03;99668.03;8501300;27;20472;-77
2022/09/11 12:40:58;;;;;;;1999.90;999.90;;;;;;;21.16;64.40;99663.19;8488777;27;20035;-78
2022/09/11 12:45:37;;;;;;;1999.90;999.90;;;;;;;21.48;64.75;99660.03;8497942;27;20043;-78
2022/09/11 12:50:05;;;;;;;1999.90;999.90;;;;;;;21.62;63.44;99654.16;8456902;28;20047;-76
2022/09/11 12:54:39;;;;;;;1999.90;999.90;;;;;;;21.67;61.54;99646.84;8465816;28;20107;-77
2022/09/11 12:59:08;;;;;;;1999.90;999.90;;;;;;;21.63;61.84;99638.22;8457591;28;20353;-77
2022/09/11 13:03:30;;;;;;;1999.90;999.90;;;;;;;21.71;62.69;99640.50;8444649;28;20040;-77
2022/09/11 13:08:03;;;;;;;1999.90;999.90;;;;;;;21.86;58.75;99636.28;8458381;28;20055;-77
2022/09/11 13:12:25;;;;;;;1999.90;999.90;;;;;;;21.70;58.79;99629.06;8456808;28;20046;-77
2022/09/11 13:16:47;;;;;;;1999.90;999.90;;;;;;;21.81;57.70;99625.09;8447941;28;20058;-77
2022/09/11 13:21:17;;;;;;;1999.90;999.90;;;;;;;21.65;57.09;99623.13;8444822;28;20062;-77
2022/09/11 13:25:43;;;;;;;1999.90;999.90;;;;;;;21.32;57.25;99624.66;8446222;28;20047;-77
2022/09/11 13:30:18;;;;;;;1999.90;999.90;;;;;;;21.07;57.70;99609.88;8439572;28;20050;-78
2022/09/11 13:34:47;;;;;;;1999.90;999.90;;;;;;;20.84;61.54;99610.03;8472245;27;20608;-77
2022/09/11 13:39:09;;;;;;;1999.90;999.90;;;;;;;20.63;64.36;99605.63;8453743;27;20039;-77
2022/09/11 13:43:44;;;;;;;1999.90;999.90;;;;;;;20.44;65.70;99590.56;8458901;27;20035;-76
2022/09/11 13:48:32;;;;;;;1999.90;999.90;;;;;;;20.44;66.60;99581.81;8466293;27;20054;-76
2022/09/11 13:52:54;;;;;;;1999.90;999.90;;;;;;;20.80;66.66;99580.25;8468649;27;20047;-76
2022/09/11 13:57:21;;;;;;;1999.90;999.90;;;;;;;21.23;62.47;99573.09;8468369;27;20536;-76
2022/09/11 14:01:59;;;;;;;1999.90;999.90;;;;;;;21.59;60.76;99567.09;8465733;27;20050;-76
2022/09/11 14:06:22;;;;;;;1999.90;999.90;;;;;;;21.75;57.58;99554.00;8472175;27;20050;-76
2022/09/11 14:10:47;;;;;;;1999.90;999.90;;;;;;;21.89;56.85;99549.75;8467491;27;20665;-77
2022/09/11 14:15:19;;;;;;;1999.90;999.90;;;;;;;22.13;57.38;99544.25;8468693;27;20571;-78
2022/09/11 14:19:44;;;;;;;1999.90;999.90;;;;;;;22.03;56.61;99536.72;8452385;27;20819;-77
2022/09/11 14:24:32;;;;;;;1999.90;999.90;;;;;;;22.20;56.42;99528.00;8471421;27;20053;-78
2022/09/11 14:28:55;;;;;;;1999.90;999.90;;;;;;;22.43;56.31;99523.31;8446462;27;20425;-77
2022/09/11 14:33:23;;;;;;;1999.90;999.90;;;;;;;22.57;56.07;99519.03;8469185;27;20055;-78
2022/09/11 14:37:48;;;;;;;1999.90;999.90;;;;;;;22.55;53.92;99518.28;8472150;27;20055;-77
2022/09/11 14:42:19;;;;;;;1999.90;999.90;;;;;;;22.73;56.16;99519.09;8450906;27;20051;-78
2022/09/11 14:46:47;;;;;;;1999.90;999.90;;;;;;;22.94;55.70;99518.94;8453657;27;20063;-77
2022/09/11 14:51:16;;;;;;;1999.90;999.90;;;;;;;22.96;53.63;99525.00;8429828;28;20823;-77
2022/09/11 14:55:38;;;;;;;;;;;;;;;23.09;55.53;99518.13;8440243;28;20035;-77
2022/09/11 15:00:00;;;;;;;1999.90;999.90;;;;;;;23.22;53.61;99519.19;8443222;28;19928;-77
2022/09/11 15:04:22;;;;;;;1999.90;999.90;;;;;;;23.23;51.56;99514.75;8441310;28;20035;-77
2022/09/11 15:08:45;;;;;;;1999.90;999.90;;;;;;;23.02;51.40;99507.03;8444764;28;20477;-78
2022/09/11 15:13:07;;;;;;;1999.90;999.90;;;;;;;22.87;52.28;99507.84;8458995;27;20529;-78
2022/09/11 15:17:36;;;;;;;1999.90;999.90;;;;;;;23.18;52.53;99502.59;8447395;27;20484;-78
2022/09/11 15:21:58;;;;;;;1999.90;999.90;;;;;;;23.39;52.55;99497.94;8467786;27;20552;-78
2022/09/11 15:26:20;;;;;;;;;;;;;;;23.52;52.20;99498.09;8472526;27;20541;-77
2022/09/11 15:30:41;;;;;;;1999.90;999.90;;;;;;;23.39;49.86;99500.56;8452207;27;19931;-77
2022/09/11 15:35:04;;;;;;;1999.90;999.90;;;;;;;23.46;50.73;99491.34;8454576;27;20058;-77
2022/09/11 15:39:33;;;;;;;1999.90;999.90;;;;;;;23.37;50.76;99491.84;8462455;27;20051;-77
2022/09/11 15:43:55;;;;;;;1999.90;999.90;;;;;;;23.36;53.00;99486.66;8459915;27;20043;-77
2022/09/11 15:48:17;;;;;;;;;;;;;;;22.91;54.72;99485.53;8449321;27;20051;-77
2022/09/11 15:52:39;;;;;;;1999.90;999.90;;;;;;;22.60;56.42;99491.56;8444266;28;20408;-77
2022/09/11 15:57:01;;;;;;;1999.90;999.90;;;;;;;22.78;55.82;99497.69;8445249;28;20063;-78
2022/09/11 16:01:26;;;;;;;1999.90;999.90;;;;;;;23.09;53.58;99496.94;8451126;27;20051;-77
2022/09/11 16:05:48;;;;;;;1999.90;999.90;;;;;;;23.17;53.59;99503.56;8463424;27;20055;-77
2022/09/11 16:10:10;;;;;;;1999.90;999.90;;;;;;;22.66;55.56;99493.91;8467488;27;20047;-78
2022/09/11 16:14:34;;;;;;;1999.90;999.90;;;;;;;22.05;58.93;99502.28;8456894;27;20461;-78
2022/09/11 16:18:57;;;;;;;1999.90;999.90;;;;;;;21.80;60.51;99499.97;8451430;27;20047;-77
2022/09/11 16:23:20;;;;;;;1999.90;999.90;;;;;;;22.39;58.22;99503.25;8450687;27;20392;-77
2022/09/11 16:27:42;;;;;;;1999.90;999.90;;;;;;;23.05;56.42;99498.91;8445097;28;20055;-77
2022/09/11 16:32:04;;;;;;;1999.90;999.90;;;;;;;23.20;55.35;99484.84;8441360;28;20043;-77
2022/09/11 16:36:27;;;;;;;1999.90;999.90;;;;;;;22.49;57.42;99480.69;8439432;28;20866;-76
2022/09/11 16:40:48;;;;;;;1999.90;999.90;;;;;;;22.00;58.19;99476.06;8421800;28;20044;-77
2022/09/11 16:45:10;;;;;;;1999.90;999.90;;;;;;;21.89;60.09;99482.78;8437767;28;20048;-78
2022/09/11 16:49:32;;;;;;;1999.90;999.90;;;;;;;21.15;60.19;99474.00;8423156;28;20044;-77
2022/09/11 16:54:21;;;;;;;1999.90;999.90;;;;;;;20.58;63.27;99468.63;8428757;28;20295;-77
2022/09/11 16:58:51;;;;;;;1999.90;999.90;;;;;;;20.06;66.90;99473.47;8442269;28;20048;-78
2022/09/11 17:03:14;;;;;;;1999.90;999.90;;;;;;;19.62;68.76;99477.94;8435420;28;20051;-78
2022/09/11 17:07:37;;;;;;;1999.90;999.90;;;;;;;19.22;70.79;99474.19;8442352;28;20048;-77
2022/09/11 17:11:59;;;;;;;1999.90;999.90;;;;;;;18.86;71.49;99471.19;8444733;28;20043;-77
2022/09/11 17:16:24;;;;;;;1999.90;999.90;;;;;;;18.60;72.55;99464.19;8437869;27;20055;-77
2022/09/11 17:20:46;;;;;;;1999.90;999.90;;;;;;;18.37;73.61;99456.25;8447034;27;20051;-77
2022/09/11 17:25:07;;;;;;;1999.90;999.90;;;;;;;18.18;74.54;99450.78;8433576;27;20142;-78
2022/09/11 17:29:29;;;;;;;1999.90;999.90;;;;;;;17.98;75.37;99445.34;8462315;27;20058;-77
2022/09/11 17:34:04;;;;;;;1999.90;999.90;;;;;;;17.74;75.85;99445.22;8438494;28;20054;-77
2022/09/11 17:38:33;;;;;;;1999.90;999.90;;;;;;;17.56;76.09;99440.53;8443317;28;20047;-78
2022/09/11 17:42:55;;;;;;;1999.90;999.90;;;;;;;17.34;75.82;99443.00;8435392;28;20043;-77
2022/09/11 17:47:28;;;;;;;1999.90;999.90;;;;;;;17.15;77.36;99436.59;8408282;28;20051;-77
2022/09/11 17:51:50;;;;;;;1999.90;999.90;;;;;;;16.99;78.83;99436.19;8429770;28;20090;-76
2022/09/11 17:56:18;;;;;;;1999.90;999.90;;;;;;;16.87;79.11;99433.91;8417052;28;20083;-77
2022/09/11 18:00:46;;;;;;;1999.90;999.90;;;;;;;16.63;79.79;99438.94;8425051;27;20047;-77
2022/09/11 18:05:14;;;;;;;1999.90;999.90;;;;;;;16.54;80.25;99438.34;8482536;27;20094;-77
2022/09/11 18:09:36;;;;;;;1999.90;999.90;;;;;;;16.40;80.78;99445.72;8460405;27;20158;-77
2022/09/11 18:14:05;;;;;;;1999.90;999.90;;;;;;;16.25;81.21;99439.13;8464398;27;20043;-77
2022/09/11 18:18:27;;;;;;;1999.90;999.90;;;;;;;16.14;81.98;99449.03;8468784;27;20063;-77
2022/09/11 18:22:49;;;;;;;1999.90;999.90;;;;;;;15.95;82.85;99446.03;8470571;27;20059;-77
2022/09/11 18:27:11;;;;;;;1999.90;999.90;;;;;;;15.84;83.16;99441.06;8482257;27;20035;-77
2022/09/11 18:31:37;;;;;;;1999.90;999.90;;;;;;;15.69;83.58;99447.53;8471097;27;20284;-77
2022/09/11 18:36:10;;;;;;;1999.90;999.90;;;;;;;15.51;83.85;99449.69;8474216;27;20283;-76
2022/09/11 18:40:39;;;;;;;1999.90;999.90;;;;;;;15.41;84.07;99449.03;8457018;27;20666;-77
2022/09/11 18:45:00;;;;;;;1999.90;999.90;;;;;;;15.32;84.80;99454.50;8471139;27;20639;-76
2022/09/11 18:49:23;;;;;;;1999.90;999.90;;;;;;;15.22;84.93;99453.81;8476603;27;20051;-76
2022/09/11 18:53:52;;;;;;;1999.90;999.90;;;;;;;15.08;85.70;99456.78;8470081;27;20488;-77
2022/09/11 18:58:14;;;;;;;1999.90;999.90;;;;;;;15.00;86.21;99465.66;8470818;27;20039;-77
2022/09/11 19:02:46;;;;;;;1999.90;999.90;;;;;;;14.92;86.32;99467.59;8480865;27;20055;-78
2022/09/11 19:07:10;;;;;;;1999.90;999.90;;;;;;;14.84;86.55;99470.34;8474011;27;20042;-77
2022/09/11 19:11:32;;;;;;;1999.90;999.90;;;;;;;14.75;86.79;99467.94;8482265;27;20148;-77
2022/09/11 19:16:02;;;;;;;1999.90;999.90;;;;;;;14.65;87.49;99463.75;8454691;27;20472;-78
2022/09/11 19:20:24;;;;;;;1999.90;999.90;;;;;;;14.58;87.86;99470.00;8478160;27;20047;-76
2022/09/11 19:24:46;;;;;;;1999.90;999.90;;;;;;;14.53;88.22;99472.69;8468761;27;20488;-77
2022/09/11 19:29:12;;;;;;;1999.90;999.90;;;;;;;14.44;88.86;99472.88;8478485;27;20044;-77
2022/09/11 19:33:35;;;;;;;1999.90;999.90;;;;;;;14.33;89.14;99477.41;8458169;27;20075;-76
2022/09/11 19:37:58;;;;;;;1999.90;999.90;;;;;;;14.26;88.95;99481.03;8466709;27;20062;-77
2022/09/11 19:42:28;;;;;;;1999.90;999.90;;;;;;;14.17;89.36;99475.06;8477510;27;20354;-77